createdAt,value
2023-03-29T00:07:43.997Z,6.86
2023-03-29T00:17:47.976Z,6.83
2023-03-29T00:27:50.670Z,6.80
2023-03-29T00:37:54.654Z,6.76
2023-03-29T00:48:00.023Z,6.73
2023-03-29T00:58:05.660Z,6.81
2023-03-29T01:08:18.309Z,6.76
2023-03-29T01:18:23.008Z,6.67
2023-03-29T01:28:32.741Z,6.67
2023-03-29T01:38:42.697Z,6.66
2023-03-29T01:48:51.733Z,6.75
2023-03-29T01:58:58.601Z,6.85
2023-03-29T02:09:04.736Z,7.00
2023-03-29T02:19:08.897Z,6.73
2023-03-29T02:29:13.221Z,6.78
2023-03-29T02:39:18.102Z,6.74
2023-03-29T02:49:22.802Z,6.79
2023-03-29T02:59:25.841Z,6.79
2023-03-29T03:09:29.844Z,6.74
2023-03-29T03:19:32.528Z,6.73
2023-03-29T03:29:38.474Z,6.91
2023-03-29T03:39:41.538Z,6.58
2023-03-29T03:49:45.637Z,6.64
2023-03-29T03:59:48.873Z,6.67
2023-03-29T04:09:52.970Z,6.69
2023-03-29T04:19:55.630Z,6.69
2023-03-29T04:29:59.686Z,6.83
2023-03-29T04:40:03.858Z,6.76
2023-03-29T04:50:09.319Z,6.84
2023-03-29T05:00:15.256Z,6.67
2023-03-29T05:10:19.880Z,6.73
2023-03-29T05:20:22.716Z,6.79
2023-03-29T05:30:26.669Z,6.84
2023-03-29T05:40:31.330Z,6.81
2023-03-29T05:50:36.818Z,7.07
2023-03-29T06:00:39.884Z,7.04
2023-03-29T06:10:44.541Z,7.00
2023-03-29T06:20:49.149Z,6.93
2023-03-29T06:30:56.149Z,7.12
2023-03-29T06:41:03.774Z,7.01
2023-03-29T06:51:08.726Z,6.94
2023-03-29T07:01:11.589Z,6.93
2023-03-29T07:11:18.639Z,6.68
2023-03-29T07:21:21.531Z,7.03
2023-03-29T07:31:25.715Z,7.30
2023-03-29T07:41:28.447Z,7.35
2023-03-29T07:51:32.407Z,7.82
2023-03-29T08:01:35.589Z,7.65
2023-03-29T08:11:39.902Z,8.12
2023-03-29T08:21:42.549Z,8.44
2023-03-29T08:31:46.562Z,8.86
2023-03-29T08:41:58.578Z,8.74
2023-03-29T08:52:05.145Z,9.90
2023-03-29T09:02:17.769Z,10.20
2023-03-29T09:12:31.402Z,10.23
2023-03-29T09:22:43.824Z,10.45
2023-03-29T09:32:53.494Z,10.18
2023-03-29T09:42:58.390Z,10.98
2023-03-29T09:53:02.607Z,11.20
2023-03-29T10:03:05.504Z,11.90
2023-03-29T10:13:16.570Z,12.42
2023-03-29T10:23:19.902Z,11.88
2023-03-29T10:33:25.584Z,12.66
2023-03-29T10:43:32.201Z,13.58
2023-03-29T10:53:38.107Z,12.29
2023-03-29T11:03:59.483Z,12.01
2023-03-29T11:14:09.214Z,11.57
2023-03-29T11:24:38.457Z,11.67
2023-03-29T11:34:56.135Z,12.53
2023-03-29T11:45:01.625Z,12.62
2023-03-29T11:55:09.212Z,13.08
2023-03-29T12:05:18.981Z,13.47
2023-03-29T12:15:25.235Z,13.65
2023-03-29T12:25:32.862Z,14.82
2023-03-29T12:35:43.144Z,15.96
2023-03-29T12:45:48.622Z,16.25
2023-03-29T12:55:57.238Z,15.09
2023-03-29T13:06:02.452Z,15.73
2023-03-29T13:16:17.381Z,17.16
2023-03-29T13:26:42.685Z,15.69
2023-03-29T13:36:57.828Z,15.28
2023-03-29T13:47:06.403Z,15.38
2023-03-29T13:57:17.082Z,15.10
2023-03-29T14:07:26.115Z,15.46
2023-03-29T14:17:30.223Z,15.27
2023-03-29T14:27:33.592Z,15.24
2023-03-29T14:37:38.563Z,15.37
2023-03-29T14:47:42.128Z,15.52
2023-03-29T14:57:49.169Z,15.42
2023-03-29T15:07:52.081Z,16.10
2023-03-29T15:17:58.280Z,15.23
2023-03-29T15:28:01.751Z,15.17
2023-03-29T15:38:06.850Z,14.74
2023-03-29T15:48:16.671Z,14.59
2023-03-29T15:58:27.043Z,14.84
2023-03-29T16:08:29.674Z,14.57
2023-03-29T16:18:33.763Z,14.27
2023-03-29T16:28:36.904Z,14.08
2023-03-29T16:38:41.487Z,13.95
2023-03-29T16:48:44.098Z,13.70
2023-03-29T16:58:48.108Z,13.44
2023-03-29T17:08:51.171Z,13.37
2023-03-29T17:18:55.171Z,13.44
2023-03-29T17:28:57.863Z,13.29
2023-03-29T17:39:02.975Z,13.31
2023-03-29T17:49:06.176Z,13.20
2023-03-29T17:59:10.233Z,13.03
2023-03-29T18:09:13.865Z,13.04
2023-03-29T18:19:17.844Z,12.97
2023-03-29T18:29:20.932Z,12.82
2023-03-29T18:39:25.291Z,12.67
2023-03-29T18:49:28.314Z,12.53
2023-03-29T18:59:32.340Z,12.33
2023-03-29T19:09:35.655Z,12.28
2023-03-29T19:19:39.738Z,12.31
2023-03-29T19:29:42.418Z,12.28
2023-03-29T19:39:46.444Z,12.19
2023-03-29T19:49:49.264Z,12.26
2023-03-29T19:59:54.033Z,12.17
2023-03-29T20:09:56.928Z,12.14
2023-03-29T20:20:01.730Z,12.15
2023-03-29T20:30:04.696Z,12.00
2023-03-29T20:40:10.942Z,11.92
2023-03-29T20:50:13.634Z,11.96
2023-03-29T21:00:19.811Z,11.79
2023-03-29T21:10:23.592Z,11.77
2023-03-29T21:20:28.469Z,11.88
2023-03-29T21:30:32.174Z,11.82
2023-03-29T21:40:38.078Z,11.76
2023-03-29T21:50:41.021Z,11.58
2023-03-29T22:00:45.923Z,11.53
2023-03-29T22:10:55.270Z,11.58
2023-03-29T22:20:59.400Z,11.42
2023-03-29T22:31:03.785Z,11.28
2023-03-29T22:41:08.154Z,11.39
2023-03-29T22:51:10.925Z,11.55
2023-03-29T23:01:15.256Z,11.57
2023-03-29T23:11:18.185Z,11.63
2023-03-29T23:21:22.916Z,11.84
2023-03-29T23:31:25.779Z,11.82
2023-03-29T23:41:30.458Z,11.82
2023-03-29T23:51:34.997Z,11.76
